Kodiak, AK

12:24 AM AKDT on July 13, 2014 (GMT -0800)
Pillar Mountain (KAKKODIA8) Elev 1204 ft | 57.79 °N, 152.44 °W | Change Station

Current weather conditions updated 6 minutes ago

Overcast
Overcast
47.1 °F
Feels Like 45 °F
N
4.7
Wind Variable Wind from NW

Today is forecast to be nearly the same temperature as yesterday. Showers.

Today
High -- | Low -- °F
--% Chance of Precip.
Yesterday
High -- | Low -- °F
Precip. -- in
5:29 AM 11:01 PM
Full, 99% visible
Pressure 29.97 in
Visibility 10.0 miles
Clouds Few 600 ft
Scattered Clouds 2000 ft
Overcast 4000 ft
Windchill 45 °F
Dew Point 47 °F
Humidity 99%
Rainfall 0.00 in
Snow Depth Not available.
UV 0 out of 12
Pollen Not available.
Air Quality Not available.
Flu Activity Sporadic
METAR PADQ 130753Z 07004KT 10SM FEW006 SCT020 OVC040 11/11 A2997 RMK AO2 SLP149 T01110111

More Conditions Fewer Conditions

Pressure 29.97 in
Visibility 10.0 miles
Clouds Few 600 ft
Scattered Clouds 2000 ft
Overcast 4000 ft
Windchill 45 °F
Dew Point 47 °F
Humidity 99%
Rainfall 0.00 in
Snow Depth Not available.
UV 0 out of 12
Pollen Not available.
Air Quality Not available.
Flu Activity Sporadic
METAR PADQ 130753Z 07004KT 10SM FEW006 SCT020 OVC040 11/11 A2997 RMK AO2 SLP149 T01110111

More Conditions Fewer Conditions

10-Day Weather Forecast

Almanac

Astronomy

Jul. 13, 2014 Rise Set
Actual Time 5:29 AM AKDT 11:01 PM AKDT
Civil Twilight 4:24 AM AKDT 12:05 AM AKDT
Nautical Twilight 2:48 AM AKDT 1:43 AM AKDT
Astronomical Twilight Sun does not rise Sun does not rise
Moon 11:10 PM AKDT 7:49 AM AKDT
Length of Visible Light 19h 40m
Length of Day
17h 31m
Tomorrow will be 3m 0s shorter.
Full, 99% of the Moon is Illuminated
Today
Full
Jul 18
Last Quarter
Jul 26
New
Aug 3
First Quarter
Aug 10
Full

Community

WunderPhotos

Upload Photos

1,733,143 photos uploaded!

Nearby

Snow Depth

Station Depth Elevation
Port Graham 0 in 300 ft
Mcneil Canyon 1 in 1320 ft
MF Bradley River 23 in 2300 ft
Cooper Lake 20 in 1200 ft
Grouse Creek Divide 0 in 700 ft

Earthquake Activity

City Distance Mag. Time & Date
No recent earthquake activity has been reported nearby.
Minimum magnitude displayed is 2.5.

Coastal Water Temperatures

Place Temperature
No Stations Reporting

Nearby Weather Stations

Station Location Temp. Windchill Dew Point Humidity Wind Precip. Elev Updated Type
Pillar Mountain, Kodiak, AK 47.1 °F 45 °F 47 °F 99% NW  at  4.7 mph - / hr 1204 ft 12:17 AM AKDT Normal
Bob Plyler on Selief Lane, Kodiak, AK 52.2 °F - 43 °F 72% SSW  at  0.0 mph 0.00 in / hr 115 ft 12:24 AM AKDT Rapid Fire
AKDOT Pasagshak Road Kodiak @ MP 2.1, Kodiak, AK 50 °F - 49 °F 96% NNE  at  1 mph 0.00 in / hr 380 ft 11:50 PM AKDT MADIS

Show More Stations Show Fewer Stations